sensor_id;sensor_type;location;lat;lon;timestamp;temperature;humidity
24146;DHT22;12308;50.948;4.706;2022-11-09T00:01:23;15.40;99.90
24146;DHT22;12308;50.948;4.706;2022-11-09T00:03:54;15.50;99.90
24146;DHT22;12308;50.948;4.706;2022-11-09T00:06:21;15.40;99.90
24146;DHT22;12308;50.948;4.706;2022-11-09T00:08:46;15.30;99.90
24146;DHT22;12308;50.948;4.706;2022-11-09T00:11:12;15.20;99.90
24146;DHT22;12308;50.948;4.706;2022-11-09T00:13:39;15.20;99.90
24146;DHT22;12308;50.948;4.706;2022-11-09T00:16:05;15.30;99.90
24146;DHT22;12308;50.948;4.706;2022-11-09T00:18:34;15.40;99.90
24146;DHT22;12308;50.948;4.706;2022-11-09T00:21:08;15.30;99.90
24146;DHT22;12308;50.948;4.706;2022-11-09T00:23:34;15.30;99.90
24146;DHT22;12308;50.948;4.706;2022-11-09T00:26:02;15.20;99.90
24146;DHT22;12308;50.948;4.706;2022-11-09T00:28:28;15.20;99.90
24146;DHT22;12308;50.948;4.706;2022-11-09T00:31:05;15.20;99.90
24146;DHT22;12308;50.948;4.706;2022-11-09T00:33:31;15.20;99.90
24146;DHT22;12308;50.948;4.706;2022-11-09T00:35:57;15.30;99.90
24146;DHT22;12308;50.948;4.706;2022-11-09T00:38:22;15.20;99.90
24146;DHT22;12308;50.948;4.706;2022-11-09T00:40:48;15.20;99.90
24146;DHT22;12308;50.948;4.706;2022-11-09T00:43:14;15.10;99.90
24146;DHT22;12308;50.948;4.706;2022-11-09T00:45:41;15.10;99.90
24146;DHT22;12308;50.948;4.706;2022-11-09T00:48:07;15.10;99.90
24146;DHT22;12308;50.948;4.706;2022-11-09T00:50:33;15.00;99.90
24146;DHT22;12308;50.948;4.706;2022-11-09T00:52:59;15.10;99.90
24146;DHT22;12308;50.948;4.706;2022-11-09T00:55:25;15.00;99.90
24146;DHT22;12308;50.948;4.706;2022-11-09T00:57:52;15.10;99.90
24146;DHT22;12308;50.948;4.706;2022-11-09T01:00:22;15.20;99.90
24146;DHT22;12308;50.948;4.706;2022-11-09T01:02:50;15.10;99.90
24146;DHT22;12308;50.948;4.706;2022-11-09T01:05:16;15.10;99.90
24146;DHT22;12308;50.948;4.706;2022-11-09T01:07:42;15.00;99.90
24146;DHT22;12308;50.948;4.706;2022-11-09T01:10:08;14.90;99.90
24146;DHT22;12308;50.948;4.706;2022-11-09T01:12:34;14.90;99.90
24146;DHT22;12308;50.948;4.706;2022-11-09T01:14:59;14.90;99.90
24146;DHT22;12308;50.948;4.706;2022-11-09T01:17:25;14.80;99.90
24146;DHT22;12308;50.948;4.706;2022-11-09T01:19:51;14.70;99.90
24146;DHT22;12308;50.948;4.706;2022-11-09T01:22:17;14.80;99.90
24146;DHT22;12308;50.948;4.706;2022-11-09T01:24:45;14.80;99.90
24146;DHT22;12308;50.948;4.706;2022-11-09T01:27:11;14.80;99.90
24146;DHT22;12308;50.948;4.706;2022-11-09T01:29:38;14.70;99.90
24146;DHT22;12308;50.948;4.706;2022-11-09T01:32:03;14.70;99.90
24146;DHT22;12308;50.948;4.706;2022-11-09T01:34:30;14.70;99.90
24146;DHT22;12308;50.948;4.706;2022-11-09T01:36:55;14.70;99.90
24146;DHT22;12308;50.948;4.706;2022-11-09T01:39:21;14.70;99.90
24146;DHT22;12308;50.948;4.706;2022-11-09T01:41:47;14.70;99.90
24146;DHT22;12308;50.948;4.706;2022-11-09T01:44:16;14.50;99.90
24146;DHT22;12308;50.948;4.706;2022-11-09T01:46:52;14.70;99.90
24146;DHT22;12308;50.948;4.706;2022-11-09T01:51:58;14.80;99.90
24146;DHT22;12308;50.948;4.706;2022-11-09T01:54:28;14.80;99.90
24146;DHT22;12308;50.948;4.706;2022-11-09T01:56:59;14.80;99.90
24146;DHT22;12308;50.948;4.706;2022-11-09T01:59:29;14.90;99.90
24146;DHT22;12308;50.948;4.706;2022-11-09T02:01:57;14.90;99.90
24146;DHT22;12308;50.948;4.706;2022-11-09T02:04:38;14.90;99.90
24146;DHT22;12308;50.948;4.706;2022-11-09T02:07:06;14.90;99.90
24146;DHT22;12308;50.948;4.706;2022-11-09T02:12:07;14.90;99.90
24146;DHT22;12308;50.948;4.706;2022-11-09T02:14:34;14.90;99.90
24146;DHT22;12308;50.948;4.706;2022-11-09T02:17:00;15.10;99.90
24146;DHT22;12308;50.948;4.706;2022-11-09T02:19:26;15.00;99.90
24146;DHT22;12308;50.948;4.706;2022-11-09T02:21:52;14.90;99.90
24146;DHT22;12308;50.948;4.706;2022-11-09T02:24:18;14.90;99.90
24146;DHT22;12308;50.948;4.706;2022-11-09T02:26:48;14.90;99.90
24146;DHT22;12308;50.948;4.706;2022-11-09T02:29:18;14.80;99.90
24146;DHT22;12308;50.948;4.706;2022-11-09T02:31:46;14.80;99.90
24146;DHT22;12308;50.948;4.706;2022-11-09T02:34:17;14.80;99.90
24146;DHT22;12308;50.948;4.706;2022-11-09T02:36:43;14.80;99.90
24146;DHT22;12308;50.948;4.706;2022-11-09T02:39:09;14.70;99.90
24146;DHT22;12308;50.948;4.706;2022-11-09T02:41:48;14.80;99.90
24146;DHT22;12308;50.948;4.706;2022-11-09T02:44:15;14.80;99.90
24146;DHT22;12308;50.948;4.706;2022-11-09T02:46:41;14.80;99.90
24146;DHT22;12308;50.948;4.706;2022-11-09T02:49:06;14.80;99.90
24146;DHT22;12308;50.948;4.706;2022-11-09T02:51:32;14.90;99.90
24146;DHT22;12308;50.948;4.706;2022-11-09T02:53:58;14.80;99.90
24146;DHT22;12308;50.948;4.706;2022-11-09T02:56:23;14.80;99.90
24146;DHT22;12308;50.948;4.706;2022-11-09T02:58:49;14.70;99.90
24146;DHT22;12308;50.948;4.706;2022-11-09T03:01:15;14.70;99.90
24146;DHT22;12308;50.948;4.706;2022-11-09T03:03:41;14.70;99.90
24146;DHT22;12308;50.948;4.706;2022-11-09T03:06:06;14.70;99.90
24146;DHT22;12308;50.948;4.706;2022-11-09T03:08:32;14.60;99.90
24146;DHT22;12308;50.948;4.706;2022-11-09T03:11:01;14.50;99.90
24146;DHT22;12308;50.948;4.706;2022-11-09T03:13:27;14.40;99.90
24146;DHT22;12308;50.948;4.706;2022-11-09T03:15:53;14.50;99.90
24146;DHT22;12308;50.948;4.706;2022-11-09T03:18:18;14.30;99.90
24146;DHT22;12308;50.948;4.706;2022-11-09T03:20:44;14.30;99.90
24146;DHT22;12308;50.948;4.706;2022-11-09T03:23:10;14.20;99.90
24146;DHT22;12308;50.948;4.706;2022-11-09T03:25:36;14.30;99.90
24146;DHT22;12308;50.948;4.706;2022-11-09T03:28:04;14.20;99.90
24146;DHT22;12308;50.948;4.706;2022-11-09T03:30:30;14.30;99.90
24146;DHT22;12308;50.948;4.706;2022-11-09T03:32:57;14.30;99.90
24146;DHT22;12308;50.948;4.706;2022-11-09T03:35:23;14.30;99.90
24146;DHT22;12308;50.948;4.706;2022-11-09T03:37:49;14.30;99.90
24146;DHT22;12308;50.948;4.706;2022-11-09T03:40:15;14.20;99.90
24146;DHT22;12308;50.948;4.706;2022-11-09T03:42:45;14.20;99.90
24146;DHT22;12308;50.948;4.706;2022-11-09T03:45:12;14.10;99.90
24146;DHT22;12308;50.948;4.706;2022-11-09T03:47:45;14.10;99.90
24146;DHT22;12308;50.948;4.706;2022-11-09T03:50:12;14.10;99.90
24146;DHT22;12308;50.948;4.706;2022-11-09T03:52:38;14.10;99.90
24146;DHT22;12308;50.948;4.706;2022-11-09T03:55:05;14.30;99.90
24146;DHT22;12308;50.948;4.706;2022-11-09T03:57:31;14.30;99.90
24146;DHT22;12308;50.948;4.706;2022-11-09T03:59:57;14.40;99.90
24146;DHT22;12308;50.948;4.706;2022-11-09T04:02:23;14.40;99.90
24146;DHT22;12308;50.948;4.706;2022-11-09T04:04:49;14.20;99.90
24146;DHT22;12308;50.948;4.706;2022-11-09T04:07:14;14.20;99.90
24146;DHT22;12308;50.948;4.706;2022-11-09T04:09:40;14.10;99.90
24146;DHT22;12308;50.948;4.706;2022-11-09T04:12:06;14.10;99.90
24146;DHT22;12308;50.948;4.706;2022-11-09T04:14:31;14.10;99.90
24146;DHT22;12308;50.948;4.706;2022-11-09T04:16:57;14.10;99.90
24146;DHT22;12308;50.948;4.706;2022-11-09T04:19:23;14.00;99.90
24146;DHT22;12308;50.948;4.706;2022-11-09T04:21:49;13.90;99.90
24146;DHT22;12308;50.948;4.706;2022-11-09T04:24:14;13.70;99.90
24146;DHT22;12308;50.948;4.706;2022-11-09T04:26:40;13.70;99.90
24146;DHT22;12308;50.948;4.706;2022-11-09T04:29:06;13.80;99.90
24146;DHT22;12308;50.948;4.706;2022-11-09T04:31:31;13.80;99.90
24146;DHT22;12308;50.948;4.706;2022-11-09T04:33:57;13.80;99.90
24146;DHT22;12308;50.948;4.706;2022-11-09T04:36:23;13.80;99.90
24146;DHT22;12308;50.948;4.706;2022-11-09T04:38:49;13.70;99.90
24146;DHT22;12308;50.948;4.706;2022-11-09T04:41:14;13.70;99.90
24146;DHT22;12308;50.948;4.706;2022-11-09T04:43:40;13.60;99.90
24146;DHT22;12308;50.948;4.706;2022-11-09T04:46:06;13.50;99.90
24146;DHT22;12308;50.948;4.706;2022-11-09T04:48:34;13.50;99.90
24146;DHT22;12308;50.948;4.706;2022-11-09T04:51:01;13.50;99.90
24146;DHT22;12308;50.948;4.706;2022-11-09T04:53:27;13.50;99.90
24146;DHT22;12308;50.948;4.706;2022-11-09T04:55:53;13.60;99.90
24146;DHT22;12308;50.948;4.706;2022-11-09T04:58:19;13.60;99.90
24146;DHT22;12308;50.948;4.706;2022-11-09T05:00:44;13.50;99.90
24146;DHT22;12308;50.948;4.706;2022-11-09T05:03:10;13.40;99.90
24146;DHT22;12308;50.948;4.706;2022-11-09T05:05:36;13.40;99.90
24146;DHT22;12308;50.948;4.706;2022-11-09T05:08:03;13.40;99.90
24146;DHT22;12308;50.948;4.706;2022-11-09T05:10:30;13.20;99.90
24146;DHT22;12308;50.948;4.706;2022-11-09T05:13:06;13.30;99.90
24146;DHT22;12308;50.948;4.706;2022-11-09T05:15:33;13.20;99.90
24146;DHT22;12308;50.948;4.706;2022-11-09T05:17:59;13.20;99.90
24146;DHT22;12308;50.948;4.706;2022-11-09T05:20:26;13.30;99.90
24146;DHT22;12308;50.948;4.706;2022-11-09T05:22:52;13.40;99.90
24146;DHT22;12308;50.948;4.706;2022-11-09T05:25:36;13.30;99.90
24146;DHT22;12308;50.948;4.706;2022-11-09T05:28:02;13.20;99.90
24146;DHT22;12308;50.948;4.706;2022-11-09T05:30:28;13.20;99.90
24146;DHT22;12308;50.948;4.706;2022-11-09T05:32:53;13.10;99.90
24146;DHT22;12308;50.948;4.706;2022-11-09T05:35:19;13.00;99.90
24146;DHT22;12308;50.948;4.706;2022-11-09T05:37:48;13.00;99.90
24146;DHT22;12308;50.948;4.706;2022-11-09T05:40:16;13.10;99.90
24146;DHT22;12308;50.948;4.706;2022-11-09T05:42:42;13.00;99.90
24146;DHT22;12308;50.948;4.706;2022-11-09T05:45:09;13.00;99.90
24146;DHT22;12308;50.948;4.706;2022-11-09T05:47:42;13.00;99.90
24146;DHT22;12308;50.948;4.706;2022-11-09T05:50:11;13.00;99.90
24146;DHT22;12308;50.948;4.706;2022-11-09T05:52:37;13.00;99.90
24146;DHT22;12308;50.948;4.706;2022-11-09T05:55:03;12.90;99.90
24146;DHT22;12308;50.948;4.706;2022-11-09T05:57:29;12.90;99.90
24146;DHT22;12308;50.948;4.706;2022-11-09T05:59:55;12.90;99.90
24146;DHT22;12308;50.948;4.706;2022-11-09T06:02:20;12.80;99.90
24146;DHT22;12308;50.948;4.706;2022-11-09T06:04:46;12.90;99.90
24146;DHT22;12308;50.948;4.706;2022-11-09T06:07:11;12.90;99.90
24146;DHT22;12308;50.948;4.706;2022-11-09T06:09:37;13.00;99.90
24146;DHT22;12308;50.948;4.706;2022-11-09T06:12:03;12.90;99.90
24146;DHT22;12308;50.948;4.706;2022-11-09T06:14:29;12.80;99.90
24146;DHT22;12308;50.948;4.706;2022-11-09T06:16:54;12.90;99.90
24146;DHT22;12308;50.948;4.706;2022-11-09T06:19:20;13.00;99.90
24146;DHT22;12308;50.948;4.706;2022-11-09T06:21:45;12.90;99.90
24146;DHT22;12308;50.948;4.706;2022-11-09T06:24:11;12.80;99.90
24146;DHT22;12308;50.948;4.706;2022-11-09T06:26:37;12.70;99.90
24146;DHT22;12308;50.948;4.706;2022-11-09T06:29:03;12.80;99.90
24146;DHT22;12308;50.948;4.706;2022-11-09T06:31:29;12.70;99.90
24146;DHT22;12308;50.948;4.706;2022-11-09T06:33:55;12.70;99.90
24146;DHT22;12308;50.948;4.706;2022-11-09T06:36:21;12.80;99.90
24146;DHT22;12308;50.948;4.706;2022-11-09T06:38:50;12.80;99.90
24146;DHT22;12308;50.948;4.706;2022-11-09T06:41:16;12.80;99.90
24146;DHT22;12308;50.948;4.706;2022-11-09T06:43:42;12.80;99.90
24146;DHT22;12308;50.948;4.706;2022-11-09T06:46:08;12.80;99.90
24146;DHT22;12308;50.948;4.706;2022-11-09T06:48:36;12.70;99.90
24146;DHT22;12308;50.948;4.706;2022-11-09T06:51:03;12.80;99.90
24146;DHT22;12308;50.948;4.706;2022-11-09T06:53:30;12.70;99.90
24146;DHT22;12308;50.948;4.706;2022-11-09T06:56:00;12.70;99.90
24146;DHT22;12308;50.948;4.706;2022-11-09T06:58:26;12.60;99.90
24146;DHT22;12308;50.948;4.706;2022-11-09T07:00:52;12.60;99.90
24146;DHT22;12308;50.948;4.706;2022-11-09T07:03:19;12.70;99.90
24146;DHT22;12308;50.948;4.706;2022-11-09T07:05:46;12.70;99.90
24146;DHT22;12308;50.948;4.706;2022-11-09T07:08:13;12.60;99.90
24146;DHT22;12308;50.948;4.706;2022-11-09T07:10:39;12.60;99.90
24146;DHT22;12308;50.948;4.706;2022-11-09T07:13:05;12.70;99.90
24146;DHT22;12308;50.948;4.706;2022-11-09T07:15:32;12.80;99.90
24146;DHT22;12308;50.948;4.706;2022-11-09T07:17:59;12.80;99.90
24146;DHT22;12308;50.948;4.706;2022-11-09T07:20:26;12.70;99.90
24146;DHT22;12308;50.948;4.706;2022-11-09T07:22:52;12.80;99.90
24146;DHT22;12308;50.948;4.706;2022-11-09T07:25:18;12.90;99.90
24146;DHT22;12308;50.948;4.706;2022-11-09T07:27:43;12.80;99.90
24146;DHT22;12308;50.948;4.706;2022-11-09T07:30:10;12.80;99.90
24146;DHT22;12308;50.948;4.706;2022-11-09T07:32:37;12.90;99.90
24146;DHT22;12308;50.948;4.706;2022-11-09T07:35:03;13.00;99.90
24146;DHT22;12308;50.948;4.706;2022-11-09T07:37:29;13.00;99.90
24146;DHT22;12308;50.948;4.706;2022-11-09T07:39:55;12.90;99.90
24146;DHT22;12308;50.948;4.706;2022-11-09T07:42:21;12.90;99.90
24146;DHT22;12308;50.948;4.706;2022-11-09T07:44:46;13.00;99.90
24146;DHT22;12308;50.948;4.706;2022-11-09T07:47:12;13.00;99.90
24146;DHT22;12308;50.948;4.706;2022-11-09T07:49:38;13.00;99.90
24146;DHT22;12308;50.948;4.706;2022-11-09T07:52:04;13.00;99.90
24146;DHT22;12308;50.948;4.706;2022-11-09T07:54:29;13.00;99.90
24146;DHT22;12308;50.948;4.706;2022-11-09T07:56:55;13.00;99.90
24146;DHT22;12308;50.948;4.706;2022-11-09T07:59:21;12.90;99.90
24146;DHT22;12308;50.948;4.706;2022-11-09T08:01:47;13.10;99.90
24146;DHT22;12308;50.948;4.706;2022-11-09T08:04:12;13.10;99.90
24146;DHT22;12308;50.948;4.706;2022-11-09T08:06:39;13.20;99.90
24146;DHT22;12308;50.948;4.706;2022-11-09T08:09:04;13.10;99.90
24146;DHT22;12308;50.948;4.706;2022-11-09T08:11:30;13.20;99.90
24146;DHT22;12308;50.948;4.706;2022-11-09T08:13:56;13.10;99.90
24146;DHT22;12308;50.948;4.706;2022-11-09T08:16:22;13.20;99.90
24146;DHT22;12308;50.948;4.706;2022-11-09T08:18:49;13.20;99.90
24146;DHT22;12308;50.948;4.706;2022-11-09T08:21:15;13.30;99.90
24146;DHT22;12308;50.948;4.706;2022-11-09T08:23:41;13.50;99.90
24146;DHT22;12308;50.948;4.706;2022-11-09T08:26:06;13.40;99.90
24146;DHT22;12308;50.948;4.706;2022-11-09T08:28:33;13.40;99.90
24146;DHT22;12308;50.948;4.706;2022-11-09T08:31:02;13.40;99.90
24146;DHT22;12308;50.948;4.706;2022-11-09T08:33:29;13.50;99.90
24146;DHT22;12308;50.948;4.706;2022-11-09T08:35:56;13.60;99.90
24146;DHT22;12308;50.948;4.706;2022-11-09T08:38:21;13.50;99.90
24146;DHT22;12308;50.948;4.706;2022-11-09T08:40:47;13.50;99.90
24146;DHT22;12308;50.948;4.706;2022-11-09T08:43:13;13.60;99.90
24146;DHT22;12308;50.948;4.706;2022-11-09T08:45:39;13.50;99.90
24146;DHT22;12308;50.948;4.706;2022-11-09T08:48:06;13.60;99.90
24146;DHT22;12308;50.948;4.706;2022-11-09T08:50:34;13.70;99.90
24146;DHT22;12308;50.948;4.706;2022-11-09T08:53:00;13.70;99.90
24146;DHT22;12308;50.948;4.706;2022-11-09T08:55:26;13.70;99.90
24146;DHT22;12308;50.948;4.706;2022-11-09T08:57:56;13.80;99.90
24146;DHT22;12308;50.948;4.706;2022-11-09T09:00:22;13.80;99.90
24146;DHT22;12308;50.948;4.706;2022-11-09T09:02:48;13.90;99.90
24146;DHT22;12308;50.948;4.706;2022-11-09T09:05:14;13.90;99.90
24146;DHT22;12308;50.948;4.706;2022-11-09T09:07:40;13.90;99.90
24146;DHT22;12308;50.948;4.706;2022-11-09T09:10:06;14.10;99.90
24146;DHT22;12308;50.948;4.706;2022-11-09T09:12:32;14.20;99.90
24146;DHT22;12308;50.948;4.706;2022-11-09T09:14:57;14.10;99.90
24146;DHT22;12308;50.948;4.706;2022-11-09T09:17:23;14.10;99.90
24146;DHT22;12308;50.948;4.706;2022-11-09T09:19:49;14.00;99.90
24146;DHT22;12308;50.948;4.706;2022-11-09T09:22:14;14.10;99.90
24146;DHT22;12308;50.948;4.706;2022-11-09T09:24:40;14.10;99.90
24146;DHT22;12308;50.948;4.706;2022-11-09T09:27:06;14.10;99.90
24146;DHT22;12308;50.948;4.706;2022-11-09T09:29:31;14.10;99.90
24146;DHT22;12308;50.948;4.706;2022-11-09T09:31:57;14.20;99.90
24146;DHT22;12308;50.948;4.706;2022-11-09T09:34:23;14.20;99.90
24146;DHT22;12308;50.948;4.706;2022-11-09T09:36:51;14.20;99.90
24146;DHT22;12308;50.948;4.706;2022-11-09T09:39:17;14.30;99.90
24146;DHT22;12308;50.948;4.706;2022-11-09T09:41:58;14.30;99.90
24146;DHT22;12308;50.948;4.706;2022-11-09T09:50:05;14.40;99.90
24146;DHT22;12308;50.948;4.706;2022-11-09T09:53:01;14.50;99.90
24146;DHT22;12308;50.948;4.706;2022-11-09T09:55:39;14.50;99.90
24146;DHT22;12308;50.948;4.706;2022-11-09T09:58:15;14.50;99.90
24146;DHT22;12308;50.948;4.706;2022-11-09T10:00:43;14.50;99.90
24146;DHT22;12308;50.948;4.706;2022-11-09T10:03:17;14.50;99.90
24146;DHT22;12308;50.948;4.706;2022-11-09T10:09:08;14.60;99.90
24146;DHT22;12308;50.948;4.706;2022-11-09T10:11:49;14.60;99.90
24146;DHT22;12308;50.948;4.706;2022-11-09T10:14:47;14.70;99.90
24146;DHT22;12308;50.948;4.706;2022-11-09T10:17:49;14.70;99.90
24146;DHT22;12308;50.948;4.706;2022-11-09T10:20:32;14.70;99.90
24146;DHT22;12308;50.948;4.706;2022-11-09T10:25:54;15.00;99.90
24146;DHT22;12308;50.948;4.706;2022-11-09T10:28:28;15.30;99.90
24146;DHT22;12308;50.948;4.706;2022-11-09T10:30:54;15.40;99.90
24146;DHT22;12308;50.948;4.706;2022-11-09T10:33:20;15.30;99.90
24146;DHT22;12308;50.948;4.706;2022-11-09T10:36:01;15.30;99.90
24146;DHT22;12308;50.948;4.706;2022-11-09T10:38:31;15.20;99.90
24146;DHT22;12308;50.948;4.706;2022-11-09T10:41:15;15.10;99.90
24146;DHT22;12308;50.948;4.706;2022-11-09T10:43:46;15.10;99.90
24146;DHT22;12308;50.948;4.706;2022-11-09T10:46:11;15.20;99.90
24146;DHT22;12308;50.948;4.706;2022-11-09T10:48:39;15.20;99.90
24146;DHT22;12308;50.948;4.706;2022-11-09T10:51:08;15.20;99.90
24146;DHT22;12308;50.948;4.706;2022-11-09T10:54:14;15.40;99.90
24146;DHT22;12308;50.948;4.706;2022-11-09T10:56:45;15.30;99.90
24146;DHT22;12308;50.948;4.706;2022-11-09T10:59:49;15.30;99.90
24146;DHT22;12308;50.948;4.706;2022-11-09T11:07:21;15.20;99.90
24146;DHT22;12308;50.948;4.706;2022-11-09T11:09:47;15.10;99.90
24146;DHT22;12308;50.948;4.706;2022-11-09T11:12:17;15.10;99.90
24146;DHT22;12308;50.948;4.706;2022-11-09T11:14:46;15.10;99.90
24146;DHT22;12308;50.948;4.706;2022-11-09T11:17:35;15.30;99.90
24146;DHT22;12308;50.948;4.706;2022-11-09T11:20:36;15.30;99.90
24146;DHT22;12308;50.948;4.706;2022-11-09T11:28:42;15.60;99.90
24146;DHT22;12308;50.948;4.706;2022-11-09T11:31:15;15.60;99.90
24146;DHT22;12308;50.948;4.706;2022-11-09T11:33:42;15.60;99.90
24146;DHT22;12308;50.948;4.706;2022-11-09T11:36:39;15.60;99.90
24146;DHT22;12308;50.948;4.706;2022-11-09T11:39:32;15.60;99.90
24146;DHT22;12308;50.948;4.706;2022-11-09T11:45:15;15.40;99.90
24146;DHT22;12308;50.948;4.706;2022-11-09T11:47:59;15.30;99.90
24146;DHT22;12308;50.948;4.706;2022-11-09T11:50:30;15.30;99.90
24146;DHT22;12308;50.948;4.706;2022-11-09T11:56:04;15.00;99.90
24146;DHT22;12308;50.948;4.706;2022-11-09T11:59:42;15.00;99.90
24146;DHT22;12308;50.948;4.706;2022-11-09T12:10:42;14.90;99.90
24146;DHT22;12308;50.948;4.706;2022-11-09T12:21:59;14.80;99.90
24146;DHT22;12308;50.948;4.706;2022-11-09T12:32:57;15.60;99.90
24146;DHT22;12308;50.948;4.706;2022-11-09T12:35:38;15.80;99.90
24146;DHT22;12308;50.948;4.706;2022-11-09T12:38:24;15.80;99.90
24146;DHT22;12308;50.948;4.706;2022-11-09T12:40:59;15.50;99.90
24146;DHT22;12308;50.948;4.706;2022-11-09T12:46:14;14.90;99.90
24146;DHT22;12308;50.948;4.706;2022-11-09T12:48:41;14.50;99.90
24146;DHT22;12308;50.948;4.706;2022-11-09T12:51:07;14.20;99.90
24146;DHT22;12308;50.948;4.706;2022-11-09T12:53:35;14.00;99.90
24146;DHT22;12308;50.948;4.706;2022-11-09T12:56:29;13.90;99.90
24146;DHT22;12308;50.948;4.706;2022-11-09T12:59:18;13.90;99.90
24146;DHT22;12308;50.948;4.706;2022-11-09T13:01:49;13.80;99.90
24146;DHT22;12308;50.948;4.706;2022-11-09T13:04:18;13.70;99.90
24146;DHT22;12308;50.948;4.706;2022-11-09T13:09:40;13.60;99.90
24146;DHT22;12308;50.948;4.706;2022-11-09T13:14:56;13.70;99.90
24146;DHT22;12308;50.948;4.706;2022-11-09T13:19:55;13.80;99.90
24146;DHT22;12308;50.948;4.706;2022-11-09T13:25:34;13.80;99.90
24146;DHT22;12308;50.948;4.706;2022-11-09T13:31:08;13.90;99.90
24146;DHT22;12308;50.948;4.706;2022-11-09T13:33:35;14.00;99.90
24146;DHT22;12308;50.948;4.706;2022-11-09T13:38:33;14.20;99.90
24146;DHT22;12308;50.948;4.706;2022-11-09T13:41:03;14.30;99.90
24146;DHT22;12308;50.948;4.706;2022-11-09T13:51:03;15.10;99.90
24146;DHT22;12308;50.948;4.706;2022-11-09T13:56:22;15.30;99.90
24146;DHT22;12308;50.948;4.706;2022-11-09T13:58:49;15.40;99.90
24146;DHT22;12308;50.948;4.706;2022-11-09T14:01:33;15.50;99.90
24146;DHT22;12308;50.948;4.706;2022-11-09T14:03:59;15.50;99.90
24146;DHT22;12308;50.948;4.706;2022-11-09T14:06:27;15.40;99.90
24146;DHT22;12308;50.948;4.706;2022-11-09T14:08:55;15.30;99.90
24146;DHT22;12308;50.948;4.706;2022-11-09T14:20:07;15.10;99.90
24146;DHT22;12308;50.948;4.706;2022-11-09T14:22:36;15.20;99.90
24146;DHT22;12308;50.948;4.706;2022-11-09T14:25:16;15.10;99.90
24146;DHT22;12308;50.948;4.706;2022-11-09T14:27:46;15.10;99.90
24146;DHT22;12308;50.948;4.706;2022-11-09T14:30:23;14.90;99.90
24146;DHT22;12308;50.948;4.706;2022-11-09T14:32:51;14.80;99.90
24146;DHT22;12308;50.948;4.706;2022-11-09T14:35:38;14.80;99.90
24146;DHT22;12308;50.948;4.706;2022-11-09T14:38:34;14.80;99.90
24146;DHT22;12308;50.948;4.706;2022-11-09T14:41:01;14.70;99.90
24146;DHT22;12308;50.948;4.706;2022-11-09T14:43:35;14.70;99.90
24146;DHT22;12308;50.948;4.706;2022-11-09T14:46:04;14.70;99.90
24146;DHT22;12308;50.948;4.706;2022-11-09T14:48:32;14.80;99.90
24146;DHT22;12308;50.948;4.706;2022-11-09T14:51:02;14.80;99.90
24146;DHT22;12308;50.948;4.706;2022-11-09T14:53:31;14.80;99.90
24146;DHT22;12308;50.948;4.706;2022-11-09T14:56:00;14.60;99.90
24146;DHT22;12308;50.948;4.706;2022-11-09T14:58:30;14.70;99.90
24146;DHT22;12308;50.948;4.706;2022-11-09T15:03:42;14.50;99.90
24146;DHT22;12308;50.948;4.706;2022-11-09T15:06:13;14.40;99.90
24146;DHT22;12308;50.948;4.706;2022-11-09T15:08:57;14.30;99.90
24146;DHT22;12308;50.948;4.706;2022-11-09T15:11:41;14.30;99.90
24146;DHT22;12308;50.948;4.706;2022-11-09T15:17:06;14.20;99.90
24146;DHT22;12308;50.948;4.706;2022-11-09T15:19:49;14.20;99.90
24146;DHT22;12308;50.948;4.706;2022-11-09T15:22:40;14.10;99.90
24146;DHT22;12308;50.948;4.706;2022-11-09T15:26:23;14.10;99.90
24146;DHT22;12308;50.948;4.706;2022-11-09T15:38:37;13.80;99.90
24146;DHT22;12308;50.948;4.706;2022-11-09T15:41:14;13.90;99.90
24146;DHT22;12308;50.948;4.706;2022-11-09T15:43:40;14.00;99.90
24146;DHT22;12308;50.948;4.706;2022-11-09T15:46:09;14.20;99.90
24146;DHT22;12308;50.948;4.706;2022-11-09T15:48:35;14.10;99.90
24146;DHT22;12308;50.948;4.706;2022-11-09T15:51:01;13.90;99.90
24146;DHT22;12308;50.948;4.706;2022-11-09T15:53:27;13.90;99.90
24146;DHT22;12308;50.948;4.706;2022-11-09T15:55:52;13.80;99.90
24146;DHT22;12308;50.948;4.706;2022-11-09T15:58:18;13.70;99.90
24146;DHT22;12308;50.948;4.706;2022-11-09T16:00:44;13.70;99.90
24146;DHT22;12308;50.948;4.706;2022-11-09T16:03:10;13.70;99.90
24146;DHT22;12308;50.948;4.706;2022-11-09T16:05:37;13.60;99.90
24146;DHT22;12308;50.948;4.706;2022-11-09T16:08:03;13.50;99.90
24146;DHT22;12308;50.948;4.706;2022-11-09T16:10:32;13.50;99.90
24146;DHT22;12308;50.948;4.706;2022-11-09T16:13:02;13.20;99.90
24146;DHT22;12308;50.948;4.706;2022-11-09T16:15:29;13.20;99.90
24146;DHT22;12308;50.948;4.706;2022-11-09T16:17:55;13.20;99.90
24146;DHT22;12308;50.948;4.706;2022-11-09T16:20:21;13.20;99.90
24146;DHT22;12308;50.948;4.706;2022-11-09T16:22:47;13.10;99.90
24146;DHT22;12308;50.948;4.706;2022-11-09T16:25:13;13.20;99.90
24146;DHT22;12308;50.948;4.706;2022-11-09T16:27:39;13.20;99.90
24146;DHT22;12308;50.948;4.706;2022-11-09T16:30:07;13.10;99.90
24146;DHT22;12308;50.948;4.706;2022-11-09T16:32:34;13.00;99.90
24146;DHT22;12308;50.948;4.706;2022-11-09T16:34:59;12.90;99.90
24146;DHT22;12308;50.948;4.706;2022-11-09T16:37:28;12.80;99.90
24146;DHT22;12308;50.948;4.706;2022-11-09T16:39:57;12.80;99.90
24146;DHT22;12308;50.948;4.706;2022-11-09T16:42:23;12.80;99.90
24146;DHT22;12308;50.948;4.706;2022-11-09T16:44:49;12.90;99.90
24146;DHT22;12308;50.948;4.706;2022-11-09T16:47:16;13.00;99.90
24146;DHT22;12308;50.948;4.706;2022-11-09T16:49:43;12.90;99.90
24146;DHT22;12308;50.948;4.706;2022-11-09T16:52:08;13.10;99.90
24146;DHT22;12308;50.948;4.706;2022-11-09T16:54:34;12.90;99.90
24146;DHT22;12308;50.948;4.706;2022-11-09T16:57:01;12.90;99.90
24146;DHT22;12308;50.948;4.706;2022-11-09T16:59:27;12.90;99.90
24146;DHT22;12308;50.948;4.706;2022-11-09T17:01:55;12.70;99.90
24146;DHT22;12308;50.948;4.706;2022-11-09T17:04:21;12.60;99.90
24146;DHT22;12308;50.948;4.706;2022-11-09T17:06:48;12.40;99.90
24146;DHT22;12308;50.948;4.706;2022-11-09T17:09:14;12.50;99.90
24146;DHT22;12308;50.948;4.706;2022-11-09T17:11:40;12.70;99.90
24146;DHT22;12308;50.948;4.706;2022-11-09T17:14:06;12.60;99.90
24146;DHT22;12308;50.948;4.706;2022-11-09T17:16:32;12.60;99.90
24146;DHT22;12308;50.948;4.706;2022-11-09T17:18:58;12.60;99.90
24146;DHT22;12308;50.948;4.706;2022-11-09T17:21:26;12.70;99.90
24146;DHT22;12308;50.948;4.706;2022-11-09T17:23:53;12.70;99.90
24146;DHT22;12308;50.948;4.706;2022-11-09T17:26:19;12.70;99.90
24146;DHT22;12308;50.948;4.706;2022-11-09T17:28:46;12.70;99.90
24146;DHT22;12308;50.948;4.706;2022-11-09T17:31:15;12.80;99.90
24146;DHT22;12308;50.948;4.706;2022-11-09T17:33:41;12.80;99.90
24146;DHT22;12308;50.948;4.706;2022-11-09T17:36:08;12.70;99.90